NOAA Web Site Link Tides and Currents Home Page Transparent placeholder image

On Saturday, June 23rd, 2018 starting at 7:30 a.m to 8 p.m. EDT, there will be a system maintenance performed affecting the Tides and Currents web site (https://tidesandcurrents.noaa.gov). During this time, the Tides and Currents website will be running with limited capabilities. Click here for more information.

PORTS® Data Listing: 8557380 Lewes, DE

CO-OPS RAW PORTS DATA

************************      PRELIMINARY DATA      ************************** 

     THIS RAW DATA HAS NOT BEEN SUBJECT TO THE NATIONAL OCEAN SERVICE'S        
     QUALITY CONTROL OR QUALITY ASSURANCE PROCEDURES AND DOES NOT MEET         
     THE CRITERIA AND STANDARDS OF OFFICIAL NATIONAL OCEAN SERVICE             
     DATA.  IT IS RELEASED FOR LIMITED PUBLIC USE AS PRELIMINARY DATA TO       
     BE USED ONLY WITH APPROPRIATE CAUTION.                                    

************************      PRELIMINARY DATA      ************************** 


       CD   -   Calendar date
       T    -   Time
       TZ   -   Timezone
       PW   -   Predicted water level (feet above MLLW)
       OW   -   Observed water level (feet above MLLW)
       WS   -   Wind speed (knots)
       WD   -   Wind direction (degrees true)
       WG   -   Wind gust (knots)
       AT   -   Air temperature (degrees farenheit)
       WT   -   Water temperature (degrees farenheit)
       AP   -   Air pressure (millibars)
       SA   -   Salinty (PSU - Practical Salinity Units)
       SG   -   Specific gravity
       RH   -   Relative humidity
       AG   -   Air gap (feet)
       VI   -   Visibility (nautical miles)

       ** NOTE **
       A variable that has its data fields filled with "9"s, indicates that
       data was not collected for that sample period.
       **********


STATION NAME: Lewes (8557380)
****************************************************************************************************
    CD       T    TZ    PW     OW    WS   WD   WG    AT    WT    AP    SA    SG     RH    AG   VI
****************************************************************************************************
2018/06/22 02:54 EDT    3.32   4.05    4  128    5  68.7  69.1 1010.4 28.1  1.020 -99.9 -99.99 -9.99
2018/06/22 03:00 EDT    3.40   4.09    4  117    4  69.1  69.1 1010.3 28.1  1.020 -99.9 -99.99 -9.99
2018/06/22 03:06 EDT    3.47   4.13    4  120    5  68.9  68.9 1010.2 28.1  1.020 -99.9 -99.99 -9.99
2018/06/22 03:12 EDT    3.53   4.20    4  119    4  69.1  69.1 1010.3 28.1  1.020 -99.9 -99.99 -9.99
2018/06/22 03:18 EDT    3.60   4.27    4  120    5  69.1  68.9 1010.3 28.2  1.020 -99.9 -99.99 -9.99
2018/06/22 03:24 EDT    3.66   4.33    4  123    5  69.1  68.9 1010.3 28.2  1.020 -99.9 -99.99 -9.99
2018/06/22 03:30 EDT    3.71   4.36    4  118    5  69.1  69.1 1010.3 28.1  1.020 -99.9 -99.99 -9.99
2018/06/22 03:36 EDT    3.77   4.43    4  115    5  69.1  69.3 1010.4 28.1  1.020 -99.9 -99.99 -9.99
2018/06/22 03:42 EDT    3.81   4.46    4  114    5  69.1  69.6 1010.4 27.9  1.020 -99.9 -99.99 -9.99
2018/06/22 03:48 EDT    3.86   4.52    4  112    5  69.1  69.8 1010.5 27.9  1.020 -99.9 -99.99 -9.99
2018/06/22 03:54 EDT    3.90   4.53    5  100    7  69.3  70.2 1010.5 27.7  1.020 -99.9 -99.99 -9.99
2018/06/22 04:00 EDT    3.94   4.59    6  104    8  69.3  70.3 1010.6 27.7  1.020 -99.9 -99.99 -9.99
2018/06/22 04:06 EDT    3.97   4.61    5  108    6  69.1  70.5 1010.6 27.6  1.020 -99.9 -99.99 -9.99
2018/06/22 04:12 EDT    4.00   4.67    5  111    6  68.9  70.5 1010.7 27.6  1.020 -99.9 -99.99 -9.99
2018/06/22 04:18 EDT    4.02   4.72    5  107    7  68.9  70.5 1010.7 27.6  1.020 -99.9 -99.99 -9.99
2018/06/22 04:24 EDT    4.04   4.72    6  110    7  68.9  70.5 1010.7 27.6  1.020 -99.9 -99.99 -9.99
2018/06/22 04:30 EDT    4.05   4.71    6  103    8  69.1  70.5 1010.7 27.6  1.020 -99.9 -99.99 -9.99
2018/06/22 04:36 EDT    4.06   4.74    7   96    9  69.1  70.5 1010.6 27.6  1.020 -99.9 -99.99 -9.99
2018/06/22 04:42 EDT    4.07   4.76    9   91   10  69.1  70.7 1010.5 27.5  1.020 -99.9 -99.99 -9.99
2018/06/22 04:48 EDT    4.07   4.75    8   93   10  69.3  70.7 1010.6 27.5  1.020 -99.9 -99.99 -9.99
2018/06/22 04:54 EDT    4.07   4.80    8   99    9  69.3  70.7 1010.7 27.5  1.020 -99.9 -99.99 -9.99
2018/06/22 05:00 EDT    4.07   4.74    7   97    9  69.3  70.7 1010.9 27.5  1.020 -99.9 -99.99 -9.99
2018/06/22 05:06 EDT    4.06   4.72    8   98   10  69.3  70.7 1011.0 27.5  1.020 -99.9 -99.99 -9.99
2018/06/22 05:12 EDT    4.04   4.70    8   95   10  69.4  70.7 1011.1 27.5  1.020 -99.9 -99.99 -9.99
2018/06/22 05:18 EDT    4.02   4.75    9   96   11  69.4  70.7 1011.2 27.5  1.020 -99.9 -99.99 -9.99
2018/06/22 05:24 EDT    4.00   4.71    8  101   11  69.3  70.7 1011.3 27.5  1.020 -99.9 -99.99 -9.99
2018/06/22 05:30 EDT    3.97   4.66    8  108   10  69.3  70.7 1011.5 27.5  1.020 -99.9 -99.99 -9.99
2018/06/22 05:36 EDT    3.94   4.62    8  112    9  69.3  70.9 1011.5 27.4  1.019 -99.9 -99.99 -9.99
2018/06/22 05:42 EDT    3.90   4.63    8  109   12  69.3  70.9 1011.6 27.4  1.019 -99.9 -99.99 -9.99
2018/06/22 05:48 EDT    3.86   4.60    8  113   11  69.3  70.9 1011.7 27.4  1.019 -99.9 -99.99 -9.99
2018/06/22 05:54 EDT    3.82   4.54    8  101   10  69.3  70.9 1011.8 27.4  1.019 -99.9 -99.99 -9.99
2018/06/22 06:00 EDT    3.77   4.49   10   99   12  69.3  70.9 1011.8 27.5  1.020 -99.9 -99.99 -9.99
2018/06/22 06:06 EDT    3.72   4.48   11   95   14  69.4  70.9 1011.8 27.4  1.019 -99.9 -99.99 -9.99
2018/06/22 06:12 EDT    3.66   4.43   13   97   17  69.3  70.9 1011.9 27.3  1.019 -99.9 -99.99 -9.99
2018/06/22 06:18 EDT    3.60   4.42   13   96   16  69.1  70.9 1011.9 27.3  1.019 -99.9 -99.99 -9.99
2018/06/22 06:24 EDT    3.53   4.34   15   97   17  68.7  70.9 1011.9 27.3  1.019 -99.9 -99.99 -9.99
2018/06/22 06:30 EDT    3.46   4.27   14   97   17  68.4  70.9 1011.9 27.3  1.019 -99.9 -99.99 -9.99
2018/06/22 06:36 EDT    3.39   4.18   14   95   17  68.0  70.9 1012.0 27.3  1.019 -99.9 -99.99 -9.99
2018/06/22 06:42 EDT    3.31   4.17   13  100   15  67.6  70.7 1012.0 27.3  1.019 -99.9 -99.99 -9.99
2018/06/22 06:48 EDT    3.23   4.09   11  104   15  67.8  70.7 1012.2 27.4  1.019 -99.9 -99.99 -9.99
2018/06/22 06:54 EDT    3.14   3.99   11  105   14  67.8  70.7 1012.3 27.4  1.019 -99.9 -99.99 -9.99
2018/06/22 07:00 EDT    3.06   3.93   10   99   12  67.8  70.7 1012.4 27.3  1.019 -99.9 -99.99 -9.99
2018/06/22 07:06 EDT    2.97   3.86   12  102   13  67.8  70.5 1012.5 27.4  1.020 -99.9 -99.99 -9.99
2018/06/22 07:12 EDT    2.87   3.74   11  106   15  68.0  70.5 1012.4 27.4  1.019 -99.9 -99.99 -9.99
2018/06/22 07:18 EDT    2.77   3.61   12  107   16  68.0  70.5 1012.3 27.3  1.019 -99.9 -99.99 -9.99
2018/06/22 07:24 EDT    2.67   3.51   12  111   15  67.8  70.5 1012.3 27.3  1.019 -99.9 -99.99 -9.99
2018/06/22 07:30 EDT    2.57   3.42   12  108   16  67.8  70.3 1012.5 27.4  1.020 -99.9 -99.99 -9.99
2018/06/22 07:36 EDT    2.47   3.37   11  106   15  67.8  70.3 1012.6 27.4  1.020 -99.9 -99.99 -9.99
2018/06/22 07:42 EDT    2.36   3.23   10  104   14  67.8  70.3 1012.7 27.4  1.020 -99.9 -99.99 -9.99
2018/06/22 07:48 EDT    2.26   3.10   11  107   15  67.8  70.3 1012.7 27.4  1.020 -99.9 -99.99 -9.99
2018/06/22 07:54 EDT    2.15   3.05   11  107   16  67.8  70.2 1012.9 27.5  1.020 -99.9 -99.99 -9.99
2018/06/22 08:00 EDT    2.04   2.93   12  111   17  67.8  70.2 1012.8 27.5  1.020 -99.9 -99.99 -9.99
2018/06/22 08:06 EDT    1.93   2.81   13  108   16  68.0  70.2 1012.9 27.5  1.020 -99.9 -99.99 -9.99
2018/06/22 08:12 EDT    1.83   2.73   11  109   15  68.0  70.2 1012.9 27.5  1.020 -99.9 -99.99 -9.99
2018/06/22 08:18 EDT    1.72   2.70   11  111   14  68.2  70.2 1013.0 27.5  1.020 -99.9 -99.99 -9.99
2018/06/22 08:24 EDT    1.61   2.58   11  105   14  68.4  69.8 1013.1 27.2  1.019 -99.9 -99.99 -9.99
2018/06/22 08:30 EDT    1.51   2.42   13  103   16  68.2  69.8 1013.1 27.4  1.020 -99.9 -99.99 -9.99
2018/06/22 08:36 EDT    1.40   2.34   11  107   15  68.4  70.3 1013.2 27.3  1.019 -99.9 -99.99 -9.99
2018/06/22 08:42 EDT    1.30   2.31   11  103   14  68.4  70.3 1013.3 27.3  1.019 -99.9 -99.99 -9.99
2018/06/22 08:48 EDT    1.20   2.22   11  102   14  68.5  70.5 1013.3 27.2  1.019 -99.9 -99.99 -9.99
2018/06/22 08:54 EDT    1.11   2.17   11  101   15  68.5  70.5 1013.4 27.2  1.019 -99.9 -99.99 -9.99
2018/06/22 09:00 EDT    1.01   2.10   11  115   15  68.5  70.5 1013.5 27.2  1.019 -99.9 -99.99 -9.99
2018/06/22 09:06 EDT    0.92   2.02   14  112   18  68.4  70.5 1013.5 27.2  1.019 -99.9 -99.99 -9.99
2018/06/22 09:12 EDT    0.83   1.95   13  106   17  68.4  70.5 1013.5 27.3  1.019 -99.9 -99.99 -9.99
2018/06/22 09:18 EDT    0.75   1.85   14  112   18  68.2  70.5 1013.5 27.2  1.019 -99.9 -99.99 -9.99
2018/06/22 09:24 EDT    0.67   1.75   11  108   15  68.4  70.5 1013.6 27.2  1.019 -99.9 -99.99 -9.99
2018/06/22 09:30 EDT    0.60   1.69   13  102   15  68.2  70.5 1013.7 27.2  1.019 -99.9 -99.99 -9.99
2018/06/22 09:36 EDT    0.53   1.64   11  106   14  68.2  70.3 1013.8 27.3  1.019 -99.9 -99.99 -9.99
2018/06/22 09:42 EDT    0.46   1.60   11  108   15  68.0  70.3 1013.8 27.3  1.019 -99.9 -99.99 -9.99
2018/06/22 09:48 EDT    0.40   1.55   11  109   13  68.2  70.3 1013.9 27.3  1.019 -99.9 -99.99 -9.99
2018/06/22 09:54 EDT    0.35   1.50   14  102   17  68.2  70.3 1013.9 27.3  1.019 -99.9 -99.99 -9.99
2018/06/22 10:00 EDT    0.30   1.44   13  100   17  68.4  70.3 1013.8 27.3  1.019 -99.9 -99.99 -9.99
2018/06/22 10:06 EDT    0.25   1.43   12  106   15  68.4  70.3 1013.8 27.3  1.019 -99.9 -99.99 -9.99
2018/06/22 10:12 EDT    0.21   1.39   14  105   17  68.5  70.3 1013.9 27.3  1.019 -99.9 -99.99 -9.99
2018/06/22 10:18 EDT    0.17   1.38   13  102   16  68.5  70.3 1013.9 27.3  1.019 -99.9 -99.99 -9.99
2018/06/22 10:24 EDT    0.15   1.42   13   98   16  68.5  70.5 1013.8 27.3  1.019 -99.9 -99.99 -9.99
2018/06/22 10:30 EDT    0.12   1.40   13  100   16  68.4  70.5 1013.8 27.2  1.019 -99.9 -99.99 -9.99
2018/06/22 10:36 EDT    0.10   1.39   15  102   19  68.4  70.5 1013.9 27.2  1.019 -99.9 -99.99 -9.99
2018/06/22 10:42 EDT    0.09   1.33   16   99   20  68.4  70.5 1013.9 27.2  1.019 -99.9 -99.99 -9.99
2018/06/22 10:48 EDT    0.08   1.28   12   95   20  69.1  70.5 1013.9 27.2  1.019 -99.9 -99.99 -9.99
2018/06/22 10:54 EDT    0.07   1.23   16   98   22  68.2  70.5 1013.9 27.3  1.019 -99.9 -99.99 -9.99
2018/06/22 11:00 EDT    0.08   1.27   16  100   19  68.2  70.5 1013.9 27.2  1.019 -99.9 -99.99 -9.99
2018/06/22 11:06 EDT    0.08   1.29   12  102   18  68.5  70.5 1014.1 27.3  1.019 -99.9 -99.99 -9.99
2018/06/22 11:12 EDT    0.09   1.30   15  100   20  68.4  70.5 1014.2 27.3  1.019 -99.9 -99.99 -9.99
2018/06/22 11:18 EDT    0.11   1.31   17   98   23  68.4  70.5 1014.2 27.2  1.019 -99.9 -99.99 -9.99
2018/06/22 11:24 EDT    0.13   1.43   15  100   19  68.4  70.5 1014.2 27.3  1.019 -99.9 -99.99 -9.99
2018/06/22 11:30 EDT    0.16   1.52   17  101   20  68.4  70.5 1014.2 27.3  1.019 -99.9 -99.99 -9.99
2018/06/22 11:36 EDT    0.19   1.48   16  100   20  68.2  70.5 1014.3 27.3  1.019 -99.9 -99.99 -9.99
2018/06/22 11:42 EDT    0.22   1.49   17   94   21  68.2  70.5 1014.2 27.3  1.019 -99.9 -99.99 -9.99
2018/06/22 11:48 EDT    0.26   1.47   15   99   20  68.4  70.5 1014.1 27.3  1.019 -99.9 -99.99 -9.99
2018/06/22 11:54 EDT    0.31   1.52   12   88   24  68.5  70.5 1014.0 27.3  1.019 -99.9 -99.99 -9.99
2018/06/22 12:00 EDT    0.36   1.57   15  100   18  68.5  70.5 1014.1 27.3  1.019 -99.9 -99.99 -9.99
2018/06/22 12:06 EDT    0.41   1.59   16   98   20  68.4  70.5 1014.2 27.3  1.019 -99.9 -99.99 -9.99
2018/06/22 12:12 EDT    0.47   1.60   17   97   21  68.4  70.7 1014.1 27.2  1.019 -99.9 -99.99 -9.99
2018/06/22 12:18 EDT    0.53   1.62   18  104   22  68.4  70.7 1014.1 27.2  1.019 -99.9 -99.99 -9.99
2018/06/22 12:24 EDT    0.60   1.79   18   99   24  68.4  70.7 1014.1 27.2  1.019 -99.9 -99.99 -9.99
2018/06/22 12:30 EDT    0.66   1.88   17  104   22  68.4  70.7 1014.2 27.2  1.019 -99.9 -99.99 -9.99
2018/06/22 12:36 EDT    0.74   1.93   17  101   22  68.4  70.7 1014.2 27.2  1.019 -99.9 -99.99 -9.99
2018/06/22 12:42 EDT    0.82   2.00   15   99   19  68.5  70.7 1014.2 27.2  1.019 -99.9 -99.99 -9.99
2018/06/22 12:48 EDT    0.90   2.02   16  100   20  68.5  70.7 1014.3 27.2  1.019 -99.9 -99.99 -9.99
2018/06/22 12:54 EDT    0.98   2.13   17   98   21  68.5  70.7 1014.3 27.2  1.019 -99.9 -99.99 -9.99
2018/06/22 13:00 EDT    1.07   2.25   15  102   20  68.5  70.7 1014.4 27.2  1.019 -99.9 -99.99 -9.99
2018/06/22 13:06 EDT    1.16   2.34   15  102   20  68.4  70.7 1014.4 27.2  1.019 -99.9 -99.99 -9.99
2018/06/22 13:12 EDT    1.25   2.41   13  106   18  68.4  70.7 1014.4 27.2  1.019 -99.9 -99.99 -9.99
2018/06/22 13:18 EDT    1.34   2.46   14  105   17  68.2  70.7 1014.4 27.2  1.019 -99.9 -99.99 -9.99
2018/06/22 13:24 EDT    1.44   2.55   13  101   16  68.4  70.7 1014.3 27.2  1.019 -99.9 -99.99 -9.99
2018/06/22 13:30 EDT    1.54   2.61   14  103   17  68.4  70.7 1014.3 27.2  1.019 -99.9 -99.99 -9.99
2018/06/22 13:36 EDT    1.64   2.62   14  104   18  68.4  70.7 1014.3 27.2  1.019 -99.9 -99.99 -9.99
2018/06/22 13:42 EDT    1.75   2.74   15   99   19  68.4  70.7 1014.1 27.2  1.019 -99.9 -99.99 -9.99
2018/06/22 13:48 EDT    1.85   2.86   15  103   22  68.4  70.7 1014.0 27.2  1.019 -99.9 -99.99 -9.99
2018/06/22 13:54 EDT    1.96   2.97   17  101   19  68.5  70.7 1013.9 27.2  1.019 -99.9 -99.99 -9.99
2018/06/22 14:00 EDT    2.07   3.10   13  112   20  68.7  70.7 1013.8 27.2  1.019 -99.9 -99.99 -9.99
2018/06/22 14:06 EDT    2.17   3.20   16   97   20  68.7  70.7 1013.7 27.2  1.019 -99.9 -99.99 -9.99
2018/06/22 14:12 EDT    2.28   3.34   17  100   21  68.5  70.5 1013.6 27.3  1.019 -99.9 -99.99 -9.99
2018/06/22 14:18 EDT    2.39   3.47   16   99   20  68.7  70.5 1013.6 27.3  1.019 -99.9 -99.99 -9.99
2018/06/22 14:24 EDT    2.50   3.55    6   73   17  69.4  70.7 1013.6 27.3  1.019 -99.9 -99.99 -9.99
2018/06/22 14:30 EDT    2.60   3.60   17  102   22  68.5  70.7 1013.6 27.3  1.019 -99.9 -99.99 -9.99
2018/06/22 14:36 EDT    2.71   3.69   14  108   19  68.7  70.5 1013.6 27.3  1.019 -99.9 -99.99 -9.99
2018/06/22 14:42 EDT    2.82   3.84   13  106   18  68.7  70.5 1013.7 27.3  1.019 -99.9 -99.99 -9.99
2018/06/22 14:48 EDT    2.92   3.90   14  105   20  68.5  70.5 1013.6 27.3  1.019 -99.9 -99.99 -9.99
2018/06/22 14:54 EDT    3.02   4.08   13  104   17  68.7  70.5 1013.6 27.3  1.019 -99.9 -99.99 -9.99
2018/06/22 15:00 EDT    3.12   4.15   15   99   19  68.5  70.5 1013.5 27.3  1.019 -99.9 -99.99 -9.99
2018/06/22 15:06 EDT    3.22   4.27   16   99   19  68.4  70.5 1013.4 27.3  1.019 -99.9 -99.99 -9.99
2018/06/22 15:12 EDT    3.31   4.36   14   98   17  68.5  70.5 1013.4 27.3  1.019 -99.9 -99.99 -9.99
2018/06/22 15:18 EDT    3.41   4.46   14   98   17  68.5  70.3 1013.3 27.4  1.020 -99.9 -99.99 -9.99
2018/06/22 15:24 EDT    3.50   4.56   15   96   21  68.5  70.3 1013.3 27.4  1.020 -99.9 -99.99 -9.99
2018/06/22 15:30 EDT    3.58   4.68   15   95   19  68.4  70.3 1013.3 27.4  1.020 -99.9 -99.99 -9.99
2018/06/22 15:36 EDT    3.67   4.74   14   95   19  68.4  70.2 1013.2 27.4  1.020 -99.9 -99.99 -9.99
2018/06/22 15:42 EDT    3.75   4.79   15   94   18  68.2  70.3 1013.2 27.4  1.020 -99.9 -99.99 -9.99
2018/06/22 15:48 EDT    3.82   4.88   14   90   18  68.2  70.2 1013.2 27.5  1.020 -99.9 -99.99 -9.99
2018/06/22 15:54 EDT    3.90   4.93   14   89   17  68.2  70.2 1013.2 27.5  1.020 -99.9 -99.99 -9.99
2018/06/22 16:00 EDT    3.96   5.00    6   83   16  68.7  70.2 1013.2 27.5  1.020 -99.9 -99.99 -9.99
2018/06/22 16:06 EDT    4.03   5.03   15   90   18  68.2  70.3 1013.1 27.4  1.020 -99.9 -99.99 -9.99
2018/06/22 16:12 EDT    4.09   5.10   14   94   17  68.0  70.3 1012.9 27.4  1.020 -99.9 -99.99 -9.99
2018/06/22 16:18 EDT    4.15   5.12   16   92   20  67.8  70.3 1012.9 27.4  1.020 -99.9 -99.99 -9.99
2018/06/22 16:24 EDT    4.20   5.16   14   94   17  67.8  70.3 1013.0 27.4  1.020 -99.9 -99.99 -9.99
2018/06/22 16:30 EDT    4.25   5.20   15   89   18  67.8  70.3 1013.1 27.4  1.020 -99.9 -99.99 -9.99
2018/06/22 16:36 EDT    4.29   5.25   13   91   16  67.8  70.3 1013.1 27.4  1.020 -99.9 -99.99 -9.99
2018/06/22 16:42 EDT    4.33   5.26   14   89   17  67.8  70.3 1013.0 27.4  1.020 -99.9 -99.99 -9.99
2018/06/22 16:48 EDT    4.37   5.35   15   90   20  67.8  70.3 1013.0 27.4  1.020 -99.9 -99.99 -9.99
2018/06/22 16:54 EDT    4.40   5.36   12   93   16  68.0  70.3 1013.0 27.4  1.020 -99.9 -99.99 -9.99
2018/06/22 17:00 EDT    4.42   5.33   12   98   14  68.0  70.3 1013.0 27.4  1.020 -99.9 -99.99 -9.99
2018/06/22 17:06 EDT    4.44   5.36   13   99   17  68.0  70.3 1013.0 27.3  1.020 -99.9 -99.99 -9.99
2018/06/22 17:12 EDT    4.46   5.33   14   96   18  68.0  70.5 1012.8 27.3  1.019 -99.9 -99.99 -9.99
2018/06/22 17:18 EDT    4.47   5.33   15   97   18  68.0  70.5 1012.8 27.3  1.019 -99.9 -99.99 -9.99
2018/06/22 17:24 EDT    4.48   5.32   11  104   14  68.2  70.5 1012.9 27.3  1.019 -99.9 -99.99 -9.99
2018/06/22 17:30 EDT    4.49   5.36   13  100   17  68.2  70.5 1012.9 27.3  1.019 -99.9 -99.99 -9.99
2018/06/22 17:36 EDT    4.48   5.35   12  105   14  68.2  70.5 1012.9 27.3  1.019 -99.9 -99.99 -9.99
2018/06/22 17:42 EDT    4.48   5.31   14  102   17  68.2  70.5 1012.8 27.3  1.019 -99.9 -99.99 -9.99
2018/06/22 17:48 EDT    4.47   5.29   13  102   17  68.2  70.5 1012.7 27.3  1.019 -99.9 -99.99 -9.99
2018/06/22 17:54 EDT    4.45   5.27   12  107   15  68.4  70.5 1012.6 27.3  1.019 -99.9 -99.99 -9.99
2018/06/22 18:00 EDT    4.43   5.29   13  101   16  68.4  70.5 1012.6 27.3  1.019 -99.9 -99.99 -9.99
2018/06/22 18:06 EDT    4.41   5.21   14  101   17  68.2  70.5 1012.7 27.3  1.019 -99.9 -99.99 -9.99
2018/06/22 18:12 EDT    4.38   5.20   13  103   18  68.2  70.5 1012.7 27.3  1.019 -99.9 -99.99 -9.99
2018/06/22 18:18 EDT    4.35   5.17   13  102   19  68.0  70.5 1012.6 27.3  1.019 -99.9 -99.99 -9.99
2018/06/22 18:24 EDT    4.31   5.15   10  114   14  68.2  70.5 1012.7 27.3  1.019 -99.9 -99.99 -9.99
2018/06/22 18:30 EDT    4.26   5.10   11  110   14  68.0  70.5 1012.8 27.3  1.019 -99.9 -99.99 -9.99
2018/06/22 18:36 EDT    4.22   5.03   11  105   15  68.0  70.5 1012.8 27.3  1.019 -99.9 -99.99 -9.99
2018/06/22 18:42 EDT    4.16   4.97   14  102   16  67.8  70.5 1012.6 27.3  1.019 -99.9 -99.99 -9.99
2018/06/22 18:48 EDT    4.10   4.93   13  104   16  67.8  70.5 1012.5 27.3  1.019 -99.9 -99.99 -9.99
2018/06/22 18:54 EDT    4.04   4.91   15  100   18  67.8  70.5 1012.4 27.3  1.019 -99.9 -99.99 -9.99
2018/06/22 19:00 EDT    3.97   4.81   12  105   16  67.8  70.5 1012.6 27.3  1.019 -99.9 -99.99 -9.99
2018/06/22 19:06 EDT    3.90   4.78   14   96   20  67.8  70.5 1012.6 27.3  1.019 -99.9 -99.99 -9.99
2018/06/22 19:12 EDT    3.83   4.71   14   97   18  67.8  70.5 1012.7 27.3  1.019 -99.9 -99.99 -9.99
2018/06/22 19:18 EDT    3.75   4.63   13   95   16  67.8  70.5 1012.8 27.3  1.019 -99.9 -99.99 -9.99
2018/06/22 19:24 EDT    3.66   4.55   12   98   14  67.6  70.3 1012.8 27.3  1.020 -99.9 -99.99 -9.99
2018/06/22 19:30 EDT    3.58   4.51   14   95   18  67.6  70.3 1012.7 27.3  1.020 -99.9 -99.99 -9.99
2018/06/22 19:36 EDT    3.49   4.34   15   91   19  67.6  70.3 1012.6 27.3  1.020 -99.9 -99.99 -9.99
2018/06/22 19:42 EDT    3.39   4.30   16   97   18  67.6  70.3 1012.5 27.3  1.020 -99.9 -99.99 -9.99
2018/06/22 19:48 EDT    3.29   4.19   13  101   22  67.6  70.3 1012.3 27.3  1.020 -99.9 -99.99 -9.99
2018/06/22 19:54 EDT    3.19   4.16   17   95   21  67.6  70.5 1012.2 27.3  1.019 -99.9 -99.99 -9.99
2018/06/22 20:00 EDT    3.09   4.08   15   95   19  67.6  70.5 1012.3 27.3  1.019 -99.9 -99.99 -9.99
2018/06/22 20:06 EDT    2.98   3.98   15   95   18  67.6  70.5 1012.4 27.2  1.019 -99.9 -99.99 -9.99
2018/06/22 20:12 EDT    2.88   3.90   14   94   17  67.6  70.3 1012.4 27.3  1.019 -99.9 -99.99 -9.99
2018/06/22 20:18 EDT    2.77   3.78   13   96   17  67.6  70.3 1012.4 27.3  1.019 -99.9 -99.99 -9.99
2018/06/22 20:24 EDT    2.66   3.65   13   99   17  67.5  70.3 1012.5 27.3  1.019 -99.9 -99.99 -9.99
2018/06/22 20:30 EDT    2.55   3.55   13   94   16  67.6  70.3 1012.6 27.3  1.019 -99.9 -99.99 -9.99
2018/06/22 20:36 EDT    2.44   3.44   14   93   18  67.6  70.3 1012.5 27.3  1.019 -99.9 -99.99 -9.99
2018/06/22 20:42 EDT    2.33   3.32   15   95   18  67.5  70.3 1012.3 27.3  1.019 -99.9 -99.99 -9.99
2018/06/22 20:48 EDT    2.22 -99.99 -999 -999 -999 -99.9 -99.9 -999.9 -9.9 -9.999 -99.9 -99.99 -9.99
2018/06/22 20:54 EDT    2.11 -99.99 -999 -999 -999 -99.9 -99.9 -999.9 -9.9 -9.999 -99.9 -99.99 -9.99
2018/06/22 21:00 EDT    2.00 -99.99 -999 -999 -999 -99.9 -99.9 -999.9 -9.9 -9.999 -99.9 -99.99 -9.99
2018/06/22 21:06 EDT    1.89 -99.99 -999 -999 -999 -99.9 -99.9 -999.9 -9.9 -9.999 -99.9 -99.99 -9.99
2018/06/22 21:12 EDT    1.78 -99.99 -999 -999 -999 -99.9 -99.9 -999.9 -9.9 -9.999 -99.9 -99.99 -9.99
2018/06/22 21:18 EDT    1.68 -99.99 -999 -999 -999 -99.9 -99.9 -999.9 -9.9 -9.999 -99.9 -99.99 -9.99
2018/06/22 21:24 EDT    1.58 -99.99 -999 -999 -999 -99.9 -99.9 -999.9 -9.9 -9.999 -99.9 -99.99 -9.99
2018/06/22 21:30 EDT    1.48 -99.99 -999 -999 -999 -99.9 -99.9 -999.9 -9.9 -9.999 -99.9 -99.99 -9.99
2018/06/22 21:36 EDT    1.38 -99.99 -999 -999 -999 -99.9 -99.9 -999.9 -9.9 -9.999 -99.9 -99.99 -9.99
2018/06/22 21:42 EDT    1.29 -99.99 -999 -999 -999 -99.9 -99.9 -999.9 -9.9 -9.999 -99.9 -99.99 -9.99
2018/06/22 21:48 EDT    1.20 -99.99 -999 -999 -999 -99.9 -99.9 -999.9 -9.9 -9.999 -99.9 -99.99 -9.99
2018/06/22 21:54 EDT    1.12 -99.99 -999 -999 -999 -99.9 -99.9 -999.9 -9.9 -9.999 -99.9 -99.99 -9.99
2018/06/22 22:00 EDT    1.04 -99.99 -999 -999 -999 -99.9 -99.9 -999.9 -9.9 -9.999 -99.9 -99.99 -9.99
2018/06/22 22:06 EDT    0.96 -99.99 -999 -999 -999 -99.9 -99.9 -999.9 -9.9 -9.999 -99.9 -99.99 -9.99
2018/06/22 22:12 EDT    0.89 -99.99 -999 -999 -999 -99.9 -99.9 -999.9 -9.9 -9.999 -99.9 -99.99 -9.99
2018/06/22 22:18 EDT    0.82 -99.99 -999 -999 -999 -99.9 -99.9 -999.9 -9.9 -9.999 -99.9 -99.99 -9.99
2018/06/22 22:24 EDT    0.76 -99.99 -999 -999 -999 -99.9 -99.9 -999.9 -9.9 -9.999 -99.9 -99.99 -9.99
2018/06/22 22:30 EDT    0.70 -99.99 -999 -999 -999 -99.9 -99.9 -999.9 -9.9 -9.999 -99.9 -99.99 -9.99
2018/06/22 22:36 EDT    0.65 -99.99 -999 -999 -999 -99.9 -99.9 -999.9 -9.9 -9.999 -99.9 -99.99 -9.99
2018/06/22 22:42 EDT    0.60 -99.99 -999 -999 -999 -99.9 -99.9 -999.9 -9.9 -9.999 -99.9 -99.99 -9.99
2018/06/22 22:48 EDT    0.56 -99.99 -999 -999 -999 -99.9 -99.9 -999.9 -9.9 -9.999 -99.9 -99.99 -9.99
2018/06/22 22:54 EDT    0.52 -99.99 -999 -999 -999 -99.9 -99.9 -999.9 -9.9 -9.999 -99.9 -99.99 -9.99
2018/06/22 23:00 EDT    0.48 -99.99 -999 -999 -999 -99.9 -99.9 -999.9 -9.9 -9.999 -99.9 -99.99 -9.99
2018/06/22 23:06 EDT    0.46 -99.99 -999 -999 -999 -99.9 -99.9 -999.9 -9.9 -9.999 -99.9 -99.99 -9.99
2018/06/22 23:12 EDT    0.43 -99.99 -999 -999 -999 -99.9 -99.9 -999.9 -9.9 -9.999 -99.9 -99.99 -9.99
2018/06/22 23:18 EDT    0.41 -99.99 -999 -999 -999 -99.9 -99.9 -999.9 -9.9 -9.999 -99.9 -99.99 -9.99
2018/06/22 23:24 EDT    0.40 -99.99 -999 -999 -999 -99.9 -99.9 -999.9 -9.9 -9.999 -99.9 -99.99 -9.99
2018/06/22 23:30 EDT    0.39 -99.99 -999 -999 -999 -99.9 -99.9 -999.9 -9.9 -9.999 -99.9 -99.99 -9.99
2018/06/22 23:36 EDT    0.39 -99.99 -999 -999 -999 -99.9 -99.9 -999.9 -9.9 -9.999 -99.9 -99.99 -9.99
2018/06/22 23:42 EDT    0.39 -99.99 -999 -999 -999 -99.9 -99.9 -999.9 -9.9 -9.999 -99.9 -99.99 -9.99
2018/06/22 23:48 EDT    0.40 -99.99 -999 -999 -999 -99.9 -99.9 -999.9 -9.9 -9.999 -99.9 -99.99 -9.99
2018/06/22 23:54 EDT    0.41 -99.99 -999 -999 -999 -99.9 -99.9 -999.9 -9.9 -9.999 -99.9 -99.99 -9.99
2018/06/23 00:00 EDT    0.42 -99.99 -999 -999 -999 -99.9 -99.9 -999.9 -9.9 -9.999 -99.9 -99.99 -9.99
2018/06/23 00:06 EDT    0.44 -99.99 -999 -999 -999 -99.9 -99.9 -999.9 -9.9 -9.999 -99.9 -99.99 -9.99
2018/06/23 00:12 EDT    0.47 -99.99 -999 -999 -999 -99.9 -99.9 -999.9 -9.9 -9.999 -99.9 -99.99 -9.99
2018/06/23 00:18 EDT    0.50 -99.99 -999 -999 -999 -99.9 -99.9 -999.9 -9.9 -9.999 -99.9 -99.99 -9.99
2018/06/23 00:24 EDT    0.53 -99.99 -999 -999 -999 -99.9 -99.9 -999.9 -9.9 -9.999 -99.9 -99.99 -9.99
2018/06/23 00:30 EDT    0.57 -99.99 -999 -999 -999 -99.9 -99.9 -999.9 -9.9 -9.999 -99.9 -99.99 -9.99
2018/06/23 00:36 EDT    0.61 -99.99 -999 -999 -999 -99.9 -99.9 -999.9 -9.9 -9.999 -99.9 -99.99 -9.99
2018/06/23 00:42 EDT    0.65 -99.99 -999 -999 -999 -99.9 -99.9 -999.9 -9.9 -9.999 -99.9 -99.99 -9.99
2018/06/23 00:48 EDT    0.70 -99.99 -999 -999 -999 -99.9 -99.9 -999.9 -9.9 -9.999 -99.9 -99.99 -9.99
2018/06/23 00:54 EDT    0.75 -99.99 -999 -999 -999 -99.9 -99.9 -999.9 -9.9 -9.999 -99.9 -99.99 -9.99
2018/06/23 01:00 EDT    0.81 -99.99 -999 -999 -999 -99.9 -99.9 -999.9 -9.9 -9.999 -99.9 -99.99 -9.99
2018/06/23 01:06 EDT    0.87 -99.99 -999 -999 -999 -99.9 -99.9 -999.9 -9.9 -9.999 -99.9 -99.99 -9.99
2018/06/23 01:12 EDT    0.94 -99.99 -999 -999 -999 -99.9 -99.9 -999.9 -9.9 -9.999 -99.9 -99.99 -9.99
2018/06/23 01:18 EDT    1.00 -99.99 -999 -999 -999 -99.9 -99.9 -999.9 -9.9 -9.999 -99.9 -99.99 -9.99
2018/06/23 01:24 EDT    1.07 -99.99 -999 -999 -999 -99.9 -99.9 -999.9 -9.9 -9.999 -99.9 -99.99 -9.99
2018/06/23 01:30 EDT    1.15 -99.99 -999 -999 -999 -99.9 -99.9 -999.9 -9.9 -9.999 -99.9 -99.99 -9.99
2018/06/23 01:36 EDT    1.22 -99.99 -999 -999 -999 -99.9 -99.9 -999.9 -9.9 -9.999 -99.9 -99.99 -9.99
2018/06/23 01:42 EDT    1.30 -99.99 -999 -999 -999 -99.9 -99.9 -999.9 -9.9 -9.999 -99.9 -99.99 -9.99
2018/06/23 01:48 EDT    1.38 -99.99 -999 -999 -999 -99.9 -99.9 -999.9 -9.9 -9.999 -99.9 -99.99 -9.99
2018/06/23 01:54 EDT    1.47 -99.99 -999 -999 -999 -99.9 -99.9 -999.9 -9.9 -9.999 -99.9 -99.99 -9.99
2018/06/23 02:00 EDT    1.55 -99.99 -999 -999 -999 -99.9 -99.9 -999.9 -9.9 -9.999 -99.9 -99.99 -9.99
2018/06/23 02:06 EDT    1.64 -99.99 -999 -999 -999 -99.9 -99.9 -999.9 -9.9 -9.999 -99.9 -99.99 -9.99
2018/06/23 02:12 EDT    1.73 -99.99 -999 -999 -999 -99.9 -99.9 -999.9 -9.9 -9.999 -99.9 -99.99 -9.99
2018/06/23 02:18 EDT    1.82 -99.99 -999 -999 -999 -99.9 -99.9 -999.9 -9.9 -9.999 -99.9 -99.99 -9.99
2018/06/23 02:24 EDT    1.91 -99.99 -999 -999 -999 -99.9 -99.9 -999.9 -9.9 -9.999 -99.9 -99.99 -9.99
2018/06/23 02:30 EDT    2.00 -99.99 -999 -999 -999 -99.9 -99.9 -999.9 -9.9 -9.999 -99.9 -99.99 -9.99
2018/06/23 02:36 EDT    2.09 -99.99 -999 -999 -999 -99.9 -99.9 -999.9 -9.9 -9.999 -99.9 -99.99 -9.99
2018/06/23 02:42 EDT    2.18 -99.99 -999 -999 -999 -99.9 -99.9 -999.9 -9.9 -9.999 -99.9 -99.99 -9.99
2018/06/23 02:48 EDT    2.27 -99.99 -999 -999 -999 -99.9 -99.9 -999.9 -9.9 -9.999 -99.9 -99.99 -9.99
2018/06/23 02:54 EDT    2.36 -99.99 -999 -999 -999 -99.9 -99.9 -999.9 -9.9 -9.999 -99.9 -99.99 -9.99

Revised: 10/15/2013
NOAA / National Ocean Service
Web site owner: Center for Operational Oceanographic Products and Services